Time;durP1;ratioP1;P1;durP2;ratioP2;P2;SDS_P1;SDS_P2;PMS_P1;PMS_P2;Temp;Humidity;BMP_temperature;BMP_pressure;BME280_temperature;BME280_humidity;BME280_pressure;Samples;Min_cycle;Max_cycle;Signal;HPM_P1;HPM_P2
2021/12/17 00:00:32;;;;;;;0.00;0.00;;;8.00;99.90;;;;;;4981050;28;20038;-64
2021/12/17 00:08:16;;;;;;;0.00;0.00;;;7.90;99.90;;;;;;4979681;28;20525;-64
2021/12/17 00:10:44;;;;;;;0.00;0.00;;;7.80;99.90;;;;;;4978781;28;20085;-65
2021/12/17 00:13:11;;;;;;;0.00;0.00;;;7.80;99.90;;;;;;4980594;28;20054;-65
2021/12/17 00:15:38;;;;;;;0.00;0.00;;;7.80;99.90;;;;;;4980056;28;20050;-65
2021/12/17 00:18:13;;;;;;;0.00;0.00;;;7.80;99.90;;;;;;4979902;28;20050;-65
2021/12/17 00:51:22;;;;;;;0.00;0.00;;;7.70;99.90;;;;;;4958780;28;20110;-65
2021/12/17 00:53:38;;;;;;;0.00;0.00;;;7.70;99.90;;;;;;4960194;28;20540;-65
2021/12/17 00:56:04;;;;;;;0.00;0.00;;;7.70;99.90;;;;;;4958443;28;20082;-66
2021/12/17 00:58:31;;;;;;;0.00;0.00;;;7.70;99.90;;;;;;4960650;28;20067;-65
2021/12/17 01:00:56;;;;;;;0.00;0.00;;;7.70;99.90;;;;;;4959999;28;20086;-65
2021/12/17 01:03:22;;;;;;;0.00;0.00;;;7.70;99.90;;;;;;4958643;28;20890;-65
2021/12/17 01:05:48;;;;;;;0.00;0.00;;;7.90;99.90;;;;;;4958631;28;20059;-65
2021/12/17 01:08:14;;;;;;;0.00;0.00;;;7.70;99.90;;;;;;4959980;28;20054;-65
2021/12/17 01:10:50;;;;;;;0.00;0.00;;;7.70;99.90;;;;;;4957608;28;20050;-65
2021/12/17 01:13:16;;;;;;;0.00;0.00;;;8.40;99.90;;;;;;4959582;28;20046;-65
2021/12/17 01:15:43;;;;;;;0.00;0.00;;;7.70;99.90;;;;;;4959257;28;20161;-64
2021/12/17 01:18:13;;;;;;;0.00;0.00;;;7.70;99.90;;;;;;4959819;28;20042;-65
2021/12/17 01:36:26;;;;;;;0.00;0.00;;;8.20;99.90;;;;;;4959726;28;20074;-65
2021/12/17 01:44:07;;;;;;;0.00;0.00;;;7.60;99.90;;;;;;4959295;28;20055;-65
2021/12/17 01:46:35;;;;;;;0.00;0.00;;;7.60;99.90;;;;;;4958804;28;20050;-65
2021/12/17 02:00:09;;;;;;;0.00;0.00;;;7.80;99.90;;;;;;4959550;28;20429;-65
2021/12/17 02:02:43;;;;;;;0.00;0.00;;;8.00;99.90;;;;;;4958242;28;20113;-68
2021/12/17 02:05:10;;;;;;;0.00;0.00;;;7.60;99.90;;;;;;4957582;28;20298;-65
2021/12/17 02:07:36;;;;;;;0.00;0.00;;;7.60;99.90;;;;;;4957555;28;20137;-65
2021/12/17 02:12:55;;;;;;;0.00;0.00;;;7.60;99.90;;;;;;4959810;28;20046;-66
2021/12/17 02:33:50;;;;;;;0.00;0.00;;;7.50;99.90;;;;;;4961957;28;20073;-65
2021/12/17 02:36:19;;;;;;;0.00;0.00;;;7.50;99.90;;;;;;4962691;28;20046;-66
2021/12/17 02:38:45;;;;;;;0.00;0.00;;;7.50;99.90;;;;;;4962447;28;20051;-66
2021/12/17 02:46:39;;;;;;;0.00;0.00;;;7.50;99.90;;;;;;4960293;28;20130;-66
2021/12/17 02:49:07;;;;;;;0.00;0.00;;;7.50;99.90;;;;;;4962047;28;20527;-66
2021/12/17 02:51:32;;;;;;;0.00;0.00;;;7.50;99.90;;;;;;4961443;28;20046;-66
2021/12/17 02:53:59;;;;;;;0.00;0.00;;;7.40;99.90;;;;;;4962521;28;20141;-65
2021/12/17 02:56:25;;;;;;;0.00;0.00;;;7.50;99.90;;;;;;4959057;28;20058;-65
2021/12/17 02:58:53;;;;;;;0.00;0.00;;;7.60;99.90;;;;;;4961048;28;20149;-65
2021/12/17 03:01:19;;;;;;;0.00;0.00;;;7.50;99.90;;;;;;4962569;28;20421;-65
2021/12/17 03:03:49;;;;;;;0.00;0.00;;;7.50;99.90;;;;;;4960945;28;20063;-66
2021/12/17 03:06:15;;;;;;;0.00;0.00;;;7.50;99.90;;;;;;4960594;28;20047;-65
2021/12/17 03:08:41;;;;;;;0.00;0.00;;;8.20;99.90;;;;;;4960500;28;20101;-65
2021/12/17 03:11:07;;;;;;;0.00;0.00;;;7.40;99.90;;;;;;4961979;28;20410;-65
2021/12/17 03:13:36;;;;;;;0.00;0.00;;;7.50;99.90;;;;;;4943493;28;20094;-65
2021/12/17 03:16:24;;;;;;;0.00;0.00;;;7.50;99.90;;;;;;4962199;28;21058;-64
2021/12/17 03:19:01;;;;;;;0.00;0.00;;;7.40;99.90;;;;;;4961458;28;20074;-65
2021/12/17 03:24:11;;;;;;;0.00;0.00;;;7.50;99.90;;;;;;4959335;28;20850;-65
2021/12/17 03:26:37;;;;;;;0.00;0.00;;;8.20;99.90;;;;;;4961998;28;20050;-65
2021/12/17 03:29:06;;;;;;;0.00;0.00;;;7.40;99.90;;;;;;4968095;28;20589;-65
2021/12/17 03:31:33;;;;;;;0.00;0.00;;;7.50;99.90;;;;;;4965020;28;20054;-64
2021/12/17 03:34:16;;;;;;;0.00;0.00;;;7.60;99.90;;;;;;4960741;28;20047;-65
2021/12/17 03:36:42;;;;;;;0.00;0.00;;;7.50;99.90;;;;;;4960329;28;20125;-65
2021/12/17 03:39:08;;;;;;;0.00;0.00;;;7.90;99.90;;;;;;4960635;28;20621;-65
2021/12/17 03:41:38;;;;;;;0.00;0.00;;;7.50;99.90;;;;;;4975734;28;20121;-65
2021/12/17 03:44:06;;;;;;;0.00;0.00;;;7.40;99.90;;;;;;4961360;28;20944;-65
2021/12/17 03:46:33;;;;;;;0.00;0.00;;;7.40;99.90;;;;;;4961852;28;20580;-65
2021/12/17 03:48:59;;;;;;;0.00;0.00;;;7.50;99.90;;;;;;4959338;28;20058;-64
2021/12/17 03:51:25;;;;;;;0.00;0.00;;;7.40;99.90;;;;;;4961653;28;20051;-65
2021/12/17 03:53:53;;;;;;;0.00;0.00;;;7.40;99.90;;;;;;4961289;28;20086;-64
2021/12/17 03:56:20;;;;;;;0.00;0.00;;;7.40;99.90;;;;;;4960365;28;20410;-64
2021/12/17 03:58:48;;;;;;;0.00;0.00;;;7.50;99.90;;;;;;4960209;28;20051;-64
2021/12/17 04:01:14;;;;;;;0.00;0.00;;;7.40;99.90;;;;;;4961246;28;20049;-65
2021/12/17 04:03:39;;;;;;;0.00;0.00;;;7.50;99.90;;;;;;4961414;28;20601;-64
2021/12/17 04:06:05;;;;;;;0.00;0.00;;;7.40;99.90;;;;;;4974978;28;20058;-65
2021/12/17 04:08:31;;;;;;;0.00;0.00;;;8.40;99.90;;;;;;4961012;28;20121;-65
2021/12/17 04:11:04;;;;;;;0.00;0.00;;;7.50;99.90;;;;;;4960556;28;20129;-64
2021/12/17 04:13:34;;;;;;;0.00;0.00;;;7.50;99.90;;;;;;4960394;28;20129;-65
2021/12/17 04:16:05;;;;;;;0.00;0.00;;;7.60;99.90;;;;;;4960405;28;20098;-64
2021/12/17 04:18:33;;;;;;;0.00;0.00;;;7.50;99.90;;;;;;4961372;28;20039;-65
2021/12/17 04:21:00;;;;;;;0.00;0.00;;;7.50;99.90;;;;;;4960807;28;20105;-64
2021/12/17 04:23:27;;;;;;;0.00;0.00;;;7.50;99.90;;;;;;4959888;28;20055;-65
2021/12/17 04:25:52;;;;;;;0.00;0.00;;;7.50;99.90;;;;;;4959684;28;20051;-65
2021/12/17 04:28:19;;;;;;;0.00;0.00;;;7.50;99.90;;;;;;4963096;28;20043;-64
2021/12/17 04:30:46;;;;;;;0.00;0.00;;;7.50;99.90;;;;;;4968680;28;20129;-65
2021/12/17 04:33:13;;;;;;;0.00;0.00;;;7.40;99.90;;;;;;4959808;28;20043;-65
2021/12/17 04:35:39;;;;;;;0.00;0.00;;;7.50;99.90;;;;;;4960774;28;20045;-65
2021/12/17 04:38:08;;;;;;;0.00;0.00;;;7.70;99.90;;;;;;4959800;28;20050;-65
2021/12/17 04:40:36;;;;;;;0.00;0.00;;;8.60;99.90;;;;;;4958635;28;20042;-65
2021/12/17 04:45:28;;;;;;;0.00;0.00;;;7.50;99.90;;;;;;4960851;28;20462;-65
2021/12/17 04:58:53;;;;;;;0.00;0.00;;;7.50;99.90;;;;;;4959207;28;20599;-65
2021/12/17 05:01:19;;;;;;;0.00;0.00;;;7.50;99.90;;;;;;4960267;28;20130;-65
2021/12/17 05:03:44;;;;;;;0.00;0.00;;;7.50;99.90;;;;;;4959594;28;20114;-65
2021/12/17 05:06:10;;;;;;;0.00;0.00;;;7.50;99.90;;;;;;4958927;28;20116;-66
2021/12/17 05:08:36;;;;;;;0.00;0.00;;;8.20;99.90;;;;;;4958044;28;20131;-65
2021/12/17 05:19:22;;;;;;;0.00;0.00;;;7.50;99.90;;;;;;4959863;28;20301;-65
2021/12/17 05:21:48;;;;;;;0.00;0.00;;;7.50;99.90;;;;;;4958223;28;20054;-65
2021/12/17 05:24:13;;;;;;;0.00;0.00;;;7.50;99.90;;;;;;4959013;28;20062;-65
2021/12/17 05:26:39;;;;;;;0.00;0.00;;;7.50;99.90;;;;;;4958760;28;20047;-65
2021/12/17 05:29:05;;;;;;;0.00;0.00;;;7.50;99.90;;;;;;4977371;28;20051;-65
2021/12/17 05:31:30;;;;;;;0.00;0.00;;;7.80;99.90;;;;;;4958926;28;20109;-65
2021/12/17 05:33:56;;;;;;;0.00;0.00;;;7.50;99.90;;;;;;4959577;28;20047;-66
2021/12/17 05:36:22;;;;;;;0.00;0.00;;;7.50;99.90;;;;;;4959232;28;20039;-65
2021/12/17 05:38:48;;;;;;;0.00;0.00;;;7.50;99.90;;;;;;4957507;28;20047;-65
2021/12/17 05:41:13;;;;;;;0.00;0.00;;;7.50;99.90;;;;;;4959801;28;20137;-65
2021/12/17 05:43:39;;;;;;;0.00;0.00;;;7.50;99.90;;;;;;4959389;28;20125;-65
2021/12/17 05:48:36;;;;;;;0.00;0.00;;;8.40;99.90;;;;;;4959445;28;20062;-65
2021/12/17 05:51:05;;;;;;;0.00;0.00;;;7.50;99.90;;;;;;4959885;28;20101;-65
2021/12/17 05:53:30;;;;;;;0.00;0.00;;;7.50;99.90;;;;;;4958481;28;20063;-65
2021/12/17 05:55:57;;;;;;;0.00;0.00;;;7.50;99.90;;;;;;4957479;28;20119;-64
2021/12/17 05:58:24;;;;;;;0.00;0.00;;;7.50;99.90;;;;;;4963369;28;20081;-65
2021/12/17 06:00:50;;;;;;;0.00;0.00;;;7.50;99.90;;;;;;4965853;28;20051;-65
2021/12/17 06:03:18;;;;;;;0.00;0.00;;;7.50;99.90;;;;;;4963613;28;20047;-65
2021/12/17 06:05:44;;;;;;;0.00;0.00;;;7.50;99.90;;;;;;4965377;28;20047;-65
2021/12/17 06:08:10;;;;;;;0.00;0.00;;;7.50;99.90;;;;;;4965745;28;20046;-64
2021/12/17 06:10:36;;;;;;;0.00;0.00;;;7.50;99.90;;;;;;4964917;28;20054;-65
2021/12/17 06:13:02;;;;;;;0.00;0.00;;;7.50;99.90;;;;;;4965031;28;20043;-64
2021/12/17 06:15:28;;;;;;;0.00;0.00;;;7.50;99.90;;;;;;4980890;28;20046;-65
2021/12/17 06:17:55;;;;;;;0.00;0.00;;;7.50;99.90;;;;;;4964127;28;20599;-65
2021/12/17 06:20:24;;;;;;;0.00;0.00;;;7.50;99.90;;;;;;4965232;28;20472;-67
2021/12/17 06:22:50;;;;;;;0.00;0.00;;;7.50;99.90;;;;;;4964645;28;20054;-67
2021/12/17 06:25:17;;;;;;;0.00;0.00;;;7.50;99.90;;;;;;4964777;28;20053;-67
2021/12/17 06:27:43;;;;;;;0.00;0.00;;;7.50;99.90;;;;;;4965173;28;20112;-67
2021/12/17 06:30:12;;;;;;;0.00;0.00;;;7.50;99.90;;;;;;4975442;28;20046;-67
2021/12/17 06:32:38;;;;;;;0.00;0.00;;;7.50;99.90;;;;;;4964344;28;20129;-67
2021/12/17 06:35:04;;;;;;;0.00;0.00;;;7.50;99.90;;;;;;4965440;28;20134;-67
2021/12/17 06:37:30;;;;;;;0.00;0.00;;;7.50;99.90;;;;;;4964412;28;20050;-65
2021/12/17 06:39:58;;;;;;;0.00;0.00;;;7.50;99.90;;;;;;4963187;28;20643;-65
2021/12/17 06:42:26;;;;;;;0.00;0.00;;;7.50;99.90;;;;;;4965182;28;20133;-65
2021/12/17 06:44:55;;;;;;;0.00;0.00;;;7.50;99.90;;;;;;4965360;28;20064;-65
2021/12/17 06:47:30;;;;;;;0.00;0.00;;;7.60;99.90;;;;;;4964672;28;20051;-65
2021/12/17 06:55:27;;;;;;;0.00;0.00;;;7.60;99.90;;;;;;4963620;28;20054;-65
2021/12/17 07:06:13;;;;;;;0.00;0.00;;;7.50;99.90;;;;;;4964194;28;20043;-66
2021/12/17 07:09:34;;;;;;;0.00;0.00;;;7.60;99.90;;;;;;4963667;28;20101;-66
2021/12/17 07:35:47;;;;;;;0.00;0.00;;;7.50;99.90;;;;;;4981196;28;20492;-65
2021/12/17 07:40:59;;;;;;;0.00;0.00;;;7.50;99.90;;;;;;4980284;28;20758;-67
2021/12/17 07:43:38;;;;;;;0.00;0.00;;;7.50;99.90;;;;;;4979223;28;20406;-67
2021/12/17 07:46:07;;;;;;;0.00;0.00;;;7.50;99.90;;;;;;4979271;28;20489;-67
2021/12/17 07:48:33;;;;;;;0.00;0.00;;;7.60;99.90;;;;;;4981102;28;20043;-67
2021/12/17 07:51:02;;;;;;;0.00;0.00;;;7.60;99.90;;;;;;4978596;28;20050;-65
2021/12/17 07:53:29;;;;;;;0.00;0.00;;;8.30;99.90;;;;;;4978733;28;20577;-65
2021/12/17 07:55:55;;;;;;;0.00;0.00;;;7.90;99.90;;;;;;4980294;28;20129;-65
2021/12/17 07:58:21;;;;;;;0.00;0.00;;;7.60;99.90;;;;;;4977920;28;20745;-65
2021/12/17 08:00:47;;;;;;;0.00;0.00;;;7.60;99.90;;;;;;4980375;28;20065;-65
2021/12/17 08:03:14;;;;;;;0.00;0.00;;;7.60;99.90;;;;;;4978842;28;20109;-65
2021/12/17 08:05:42;;;;;;;0.00;0.00;;;7.90;99.90;;;;;;4980826;28;20043;-65
2021/12/17 08:08:09;;;;;;;0.00;0.00;;;7.60;99.90;;;;;;4978453;28;20105;-65
2021/12/17 08:10:35;;;;;;;0.00;0.00;;;7.80;99.90;;;;;;4979438;28;20449;-65
2021/12/17 08:13:01;;;;;;;0.00;0.00;;;7.60;99.90;;;;;;4976154;28;20053;-64
2021/12/17 08:15:35;;;;;;;0.00;0.00;;;7.60;99.90;;;;;;4969645;28;20050;-65
2021/12/17 08:18:49;;;;;;;0.00;0.00;;;7.60;99.90;;;;;;4970123;28;20114;-65
2021/12/17 08:26:27;;;;;;;0.00;0.00;;;7.70;99.90;;;;;;4979802;28;20047;-65
2021/12/17 08:31:22;;;;;;;0.00;0.00;;;8.80;99.90;;;;;;4965166;28;20085;-65
2021/12/17 08:33:48;;;;;;;0.00;0.00;;;7.60;99.90;;;;;;4960089;28;20101;-65
2021/12/17 08:36:15;;;;;;;0.00;0.00;;;7.60;99.90;;;;;;4959331;28;20043;-65
2021/12/17 08:38:44;;;;;;;0.00;0.00;;;7.60;99.90;;;;;;4959674;28;20085;-65
2021/12/17 08:41:12;;;;;;;0.00;0.00;;;7.60;99.90;;;;;;4959321;28;20443;-65
2021/12/17 08:43:40;;;;;;;0.00;0.00;;;7.60;99.90;;;;;;4959773;28;20054;-65
2021/12/17 08:46:06;;;;;;;0.00;0.00;;;7.80;99.90;;;;;;4960139;28;20118;-65
2021/12/17 08:48:33;;;;;;;0.00;0.00;;;7.60;99.90;;;;;;4960700;28;20514;-64
2021/12/17 08:50:59;;;;;;;0.00;0.00;;;7.70;99.90;;;;;;4959316;28;20098;-65
2021/12/17 08:53:25;;;;;;;0.00;0.00;;;7.70;99.90;;;;;;4958390;28;20101;-65
2021/12/17 08:55:51;;;;;;;0.00;0.00;;;7.70;99.90;;;;;;4959615;28;20125;-65
2021/12/17 08:58:16;;;;;;;0.00;0.00;;;7.70;99.90;;;;;;4959976;28;20043;-65
2021/12/17 09:00:44;;;;;;;0.00;0.00;;;7.70;99.90;;;;;;4959269;28;20047;-64
2021/12/17 09:03:10;;;;;;;0.00;0.00;;;7.70;99.90;;;;;;4974360;28;20086;-65
2021/12/17 09:05:38;;;;;;;0.00;0.00;;;7.70;99.90;;;;;;4958721;28;20051;-64
2021/12/17 09:08:08;;;;;;;0.00;0.00;;;7.80;99.90;;;;;;4959993;28;20069;-65
2021/12/17 09:10:33;;;;;;;0.00;0.00;;;7.80;99.90;;;;;;4957300;28;20070;-65
2021/12/17 09:13:00;;;;;;;0.00;0.00;;;7.80;99.90;;;;;;4959653;28;20138;-65
2021/12/17 09:15:27;;;;;;;0.00;0.00;;;7.60;99.90;;;;;;4958208;28;20053;-65
2021/12/17 09:17:53;;;;;;;0.00;0.00;;;7.80;99.90;;;;;;4958860;28;20434;-65
2021/12/17 09:20:18;;;;;;;0.00;0.00;;;7.90;99.90;;;;;;4957360;28;20050;-65
2021/12/17 09:22:44;;;;;;;0.00;0.00;;;7.90;99.90;;;;;;4957980;28;20683;-64
2021/12/17 09:25:11;;;;;;;0.00;0.00;;;7.80;99.90;;;;;;4958949;28;20043;-65
2021/12/17 09:27:37;;;;;;;0.00;0.00;;;7.90;99.90;;;;;;4957914;28;20121;-65
2021/12/17 09:30:14;;;;;;;0.00;0.00;;;7.90;99.90;;;;;;4969721;28;20162;-65
2021/12/17 09:32:40;;;;;;;0.00;0.00;;;7.90;99.90;;;;;;4958177;28;20047;-67
2021/12/17 09:35:11;;;;;;;0.00;0.00;;;8.00;99.90;;;;;;4957755;28;20086;-67
2021/12/17 09:37:38;;;;;;;0.00;0.00;;;7.90;99.90;;;;;;4959754;28;20055;-66
2021/12/17 09:40:08;;;;;;;0.00;0.00;;;7.90;99.90;;;;;;4958437;28;20035;-67
2021/12/17 09:42:34;;;;;;;0.00;0.00;;;7.90;99.90;;;;;;4958350;28;20051;-67
2021/12/17 09:45:00;;;;;;;0.00;0.00;;;8.00;99.90;;;;;;4958543;28;20509;-67
2021/12/17 09:47:26;;;;;;;0.00;0.00;;;8.00;99.90;;;;;;4959228;28;20803;-67
2021/12/17 09:49:57;;;;;;;0.00;0.00;;;8.00;99.90;;;;;;4959457;28;20259;-67
2021/12/17 09:52:26;;;;;;;0.00;0.00;;;8.00;99.90;;;;;;4958551;28;20046;-67
2021/12/17 09:54:53;;;;;;;0.00;0.00;;;8.00;99.90;;;;;;4958385;28;20058;-66
2021/12/17 09:57:20;;;;;;;0.00;0.00;;;9.10;99.90;;;;;;4957307;28;20049;-69
2021/12/17 09:59:46;;;;;;;0.00;0.00;;;8.10;99.90;;;;;;4957431;28;20047;-70
2021/12/17 10:02:13;;;;;;;0.00;0.00;;;8.10;99.90;;;;;;4956787;28;20081;-68
2021/12/17 10:04:44;;;;;;;0.00;0.00;;;8.10;99.90;;;;;;4958504;28;20125;-69
2021/12/17 10:07:27;;;;;;;0.00;0.00;;;8.10;99.90;;;;;;4957523;28;20062;-68
2021/12/17 10:09:59;;;;;;;0.00;0.00;;;8.20;99.90;;;;;;4956561;28;20055;-69
2021/12/17 10:12:26;;;;;;;0.00;0.00;;;8.20;99.90;;;;;;4957362;28;20114;-68
2021/12/17 10:15:14;;;;;;;0.00;0.00;;;8.90;99.90;;;;;;4956841;28;20086;-69
2021/12/17 10:18:01;;;;;;;0.00;0.00;;;8.10;99.90;;;;;;4959018;28;20093;-69
2021/12/17 10:20:35;;;;;;;0.00;0.00;;;8.20;99.90;;;;;;4956671;28;20114;-68
2021/12/17 10:23:04;;;;;;;0.00;0.00;;;8.50;99.90;;;;;;4957247;28;20113;-68
2021/12/17 10:25:32;;;;;;;0.00;0.00;;;8.20;99.90;;;;;;4957834;28;20051;-68
2021/12/17 10:28:01;;;;;;;0.00;0.00;;;8.50;99.90;;;;;;4958718;28;20078;-68
2021/12/17 10:30:28;;;;;;;0.00;0.00;;;8.00;99.90;;;;;;4977141;28;20093;-69
2021/12/17 10:32:57;;;;;;;0.00;0.00;;;8.40;99.90;;;;;;4958668;28;20593;-68
2021/12/17 10:35:24;;;;;;;0.00;0.00;;;8.50;99.90;;;;;;4956626;28;20132;-69
2021/12/17 10:37:57;;;;;;;0.00;0.00;;;8.80;99.90;;;;;;4958713;28;20051;-67
2021/12/17 10:40:25;;;;;;;0.00;0.00;;;8.60;99.90;;;;;;4957581;28;20130;-68
2021/12/17 10:43:06;;;;;;;0.00;0.00;;;8.70;99.90;;;;;;4957702;28;20054;-67
2021/12/17 10:45:45;;;;;;;0.00;0.00;;;8.80;99.90;;;;;;4960244;28;20059;-68
2021/12/17 10:50:46;;;;;;;0.00;0.00;;;8.80;99.90;;;;;;4962175;28;20113;-67
2021/12/17 10:53:12;;;;;;;0.00;0.00;;;8.80;99.90;;;;;;4960619;28;20597;-67
2021/12/17 10:55:37;;;;;;;0.00;0.00;;;8.80;99.90;;;;;;4961026;28;20046;-68
2021/12/17 10:58:04;;;;;;;0.00;0.00;;;8.70;99.90;;;;;;4961495;28;20482;-68
2021/12/17 11:00:30;;;;;;;0.00;0.00;;;8.80;99.90;;;;;;4962538;28;20469;-68
2021/12/17 11:03:00;;;;;;;0.00;0.00;;;8.70;99.90;;;;;;4961642;28;20070;-68
2021/12/17 11:05:33;;;;;;;0.00;0.00;;;8.70;99.90;;;;;;4959794;28;20046;-68
2021/12/17 11:07:59;;;;;;;0.00;0.00;;;8.70;99.90;;;;;;4960966;28;20137;-68
2021/12/17 11:10:31;;;;;;;0.00;0.00;;;8.80;99.90;;;;;;4960804;28;20043;-68
2021/12/17 11:12:57;;;;;;;0.00;0.00;;;8.90;99.90;;;;;;4961085;28;20450;-68
2021/12/17 11:15:30;;;;;;;0.00;0.00;;;8.80;99.90;;;;;;4960401;28;20051;-67
2021/12/17 11:18:02;;;;;;;0.00;0.00;;;8.70;99.90;;;;;;4961779;28;20118;-68
2021/12/17 11:20:33;;;;;;;0.00;0.00;;;8.70;99.90;;;;;;4959966;28;20051;-68
2021/12/17 11:23:06;;;;;;;0.00;0.00;;;8.70;99.90;;;;;;4960227;28;20183;-67
2021/12/17 11:25:35;;;;;;;0.00;0.00;;;8.70;99.90;;;;;;4960913;28;20097;-68
2021/12/17 11:28:01;;;;;;;0.00;0.00;;;8.60;99.90;;;;;;4962460;28;20420;-68
2021/12/17 11:30:30;;;;;;;0.00;0.00;;;8.80;99.90;;;;;;4968269;28;20059;-68
2021/12/17 11:33:01;;;;;;;0.00;0.00;;;8.70;99.90;;;;;;4961141;28;20047;-68
2021/12/17 11:35:28;;;;;;;0.00;0.00;;;8.70;99.90;;;;;;4958904;28;20127;-67
2021/12/17 11:38:00;;;;;;;0.00;0.00;;;8.70;99.90;;;;;;4960513;28;20046;-67
2021/12/17 11:40:29;;;;;;;0.00;0.00;;;8.80;99.90;;;;;;4960401;28;20471;-69
2021/12/17 11:43:15;;;;;;;0.00;0.00;;;8.70;99.90;;;;;;4960361;28;20053;-67
2021/12/17 11:45:42;;;;;;;0.00;0.00;;;8.80;99.90;;;;;;4960059;28;20062;-69
2021/12/17 11:48:17;;;;;;;0.00;0.00;;;9.10;99.90;;;;;;4959665;28;20047;-67
2021/12/17 11:50:44;;;;;;;0.00;0.00;;;8.90;99.90;;;;;;4961157;28;20046;-70
2021/12/17 11:53:23;;;;;;;0.00;0.00;;;8.90;99.90;;;;;;4958661;28;20043;-69
2021/12/17 11:56:00;;;;;;;0.00;0.00;;;8.80;99.90;;;;;;4959778;28;20046;-69
2021/12/17 11:58:48;;;;;;;0.00;0.00;;;9.20;99.90;;;;;;4961086;28;20055;-69
2021/12/17 12:01:55;;;;;;;0.00;0.00;;;8.90;99.90;;;;;;4958818;28;20508;-69
2021/12/17 12:04:33;;;;;;;0.00;0.00;;;8.80;99.90;;;;;;4959270;28;20133;-69
2021/12/17 12:07:19;;;;;;;0.00;0.00;;;9.00;99.90;;;;;;4959546;28;20058;-68
2021/12/17 12:09:54;;;;;;;0.00;0.00;;;8.80;99.90;;;;;;4958071;28;20429;-69
2021/12/17 12:12:20;;;;;;;0.00;0.00;;;8.80;99.90;;;;;;4960739;28;20134;-70
2021/12/17 12:14:45;;;;;;;0.00;0.00;;;8.90;99.90;;;;;;4959423;28;20580;-69
2021/12/17 12:17:11;;;;;;;0.00;0.00;;;8.80;99.90;;;;;;4960909;28;20063;-63
2021/12/17 12:19:50;;;;;;;0.00;0.00;;;8.90;99.90;;;;;;4959706;28;20502;-67
2021/12/17 12:22:29;;;;;;;0.00;0.00;;;9.60;99.90;;;;;;4960662;28;20093;-67
2021/12/17 12:25:43;;;;;;;0.00;0.00;;;9.20;99.90;;;;;;4957570;28;20093;-66
2021/12/17 12:28:12;;;;;;;0.00;0.00;;;9.30;99.90;;;;;;4956095;28;20134;-66
2021/12/17 12:30:41;;;;;;;0.00;0.00;;;9.40;99.90;;;;;;4965315;28;20410;-66
2021/12/17 12:33:08;;;;;;;0.00;0.00;;;9.40;99.90;;;;;;4959399;28;20442;-65
2021/12/17 12:35:34;;;;;;;0.00;0.00;;;9.30;99.90;;;;;;4974555;28;20062;-66
2021/12/17 12:38:14;;;;;;;0.00;0.00;;;9.20;99.90;;;;;;4959576;28;20158;-65
2021/12/17 12:40:44;;;;;;;0.00;0.00;;;9.20;99.90;;;;;;4960725;28;20043;-65
2021/12/17 12:43:31;;;;;;;0.00;0.00;;;9.20;99.90;;;;;;4958151;28;20059;-67
2021/12/17 12:45:58;;;;;;;0.00;0.00;;;9.20;99.90;;;;;;4958307;28;20047;-66
2021/12/17 12:48:39;;;;;;;0.00;0.00;;;9.30;99.90;;;;;;4958500;28;20376;-66
2021/12/17 12:51:17;;;;;;;0.00;0.00;;;9.20;99.90;;;;;;4973985;28;20457;-66
2021/12/17 12:54:01;;;;;;;0.00;0.00;;;9.10;99.90;;;;;;4957858;28;20125;-66
2021/12/17 12:56:27;;;;;;;0.00;0.00;;;9.10;99.90;;;;;;4959883;28;20105;-66
2021/12/17 12:58:53;;;;;;;0.00;0.00;;;9.00;99.90;;;;;;4959726;28;20552;-66
2021/12/17 13:01:20;;;;;;;0.00;0.00;;;9.00;99.90;;;;;;4958817;28;20070;-66
2021/12/17 13:03:47;;;;;;;0.00;0.00;;;9.50;99.90;;;;;;4942901;28;20130;-66
2021/12/17 13:06:18;;;;;;;0.00;0.00;;;9.10;99.90;;;;;;4974517;28;20046;-66
2021/12/17 13:08:55;;;;;;;0.00;0.00;;;9.50;99.90;;;;;;4957679;28;20070;-67
2021/12/17 13:11:21;;;;;;;0.00;0.00;;;8.90;99.90;;;;;;4974677;28;20055;-66
2021/12/17 13:13:54;;;;;;;0.00;0.00;;;8.90;99.90;;;;;;4959461;28;20439;-66
2021/12/17 13:24:16;;;;;;;0.00;0.00;;;9.10;99.90;;;;;;4958644;28;20050;-66
2021/12/17 13:26:51;;;;;;;0.00;0.00;;;8.90;99.90;;;;;;4958973;28;20189;-67
2021/12/17 13:29:19;;;;;;;0.00;0.00;;;9.10;99.90;;;;;;4967456;28;20169;-67
2021/12/17 13:32:17;;;;;;;0.00;0.00;;;9.30;99.90;;;;;;4959016;28;20046;-66
2021/12/17 13:34:46;;;;;;;0.00;0.00;;;8.80;99.90;;;;;;4968953;28;20055;-66
2021/12/17 13:37:13;;;;;;;0.00;0.00;;;9.50;99.90;;;;;;4958184;28;20386;-66
2021/12/17 13:39:49;;;;;;;0.00;0.00;;;8.80;99.90;;;;;;4958609;28;20052;-66
2021/12/17 13:42:19;;;;;;;0.00;0.00;;;8.80;99.90;;;;;;4958683;28;20051;-66
2021/12/17 13:44:52;;;;;;;0.00;0.00;;;8.80;99.90;;;;;;4958188;28;20478;-66
2021/12/17 13:47:20;;;;;;;0.00;0.00;;;8.80;99.90;;;;;;4958387;28;20476;-66
2021/12/17 13:50:09;;;;;;;0.00;0.00;;;9.20;99.90;;;;;;4958225;28;20043;-66
2021/12/17 13:52:46;;;;;;;0.00;0.00;;;8.80;99.90;;;;;;4958346;28;20129;-66
2021/12/17 13:55:14;;;;;;;0.00;0.00;;;8.80;99.90;;;;;;4957110;28;20050;-66
2021/12/17 13:57:42;;;;;;;0.00;0.00;;;8.70;99.90;;;;;;4958938;28;20054;-66
2021/12/17 14:00:15;;;;;;;0.00;0.00;;;8.80;99.90;;;;;;4958652;28;20137;-66
2021/12/17 14:02:43;;;;;;;0.00;0.00;;;8.80;99.90;;;;;;4972670;28;20061;-66
2021/12/17 14:05:14;;;;;;;0.00;0.00;;;8.80;99.90;;;;;;4958772;28;20137;-66
2021/12/17 14:07:40;;;;;;;0.00;0.00;;;9.00;99.90;;;;;;4956567;28;20070;-66
2021/12/17 14:10:16;;;;;;;0.00;0.00;;;8.90;99.90;;;;;;4973070;28;20055;-66
2021/12/17 14:12:43;;;;;;;0.00;0.00;;;8.70;99.90;;;;;;4957210;28;20054;-66
2021/12/17 14:15:20;;;;;;;0.00;0.00;;;8.80;99.90;;;;;;4958917;28;20047;-66
2021/12/17 14:17:48;;;;;;;0.00;0.00;;;8.80;99.90;;;;;;4956649;28;20070;-66
2021/12/17 14:20:21;;;;;;;0.00;0.00;;;8.80;99.90;;;;;;4961168;28;20043;-66
2021/12/17 14:22:49;;;;;;;0.00;0.00;;;8.80;99.90;;;;;;4961779;28;20053;-66
2021/12/17 14:25:31;;;;;;;0.00;0.00;;;8.80;99.90;;;;;;4961567;28;20046;-66
2021/12/17 14:28:20;;;;;;;0.00;0.00;;;8.80;99.90;;;;;;4979792;28;20490;-66
2021/12/17 14:30:54;;;;;;;0.00;0.00;;;9.40;99.90;;;;;;4969197;28;20402;-66
2021/12/17 14:33:23;;;;;;;0.00;0.00;;;8.80;99.90;;;;;;4961360;28;20402;-66
2021/12/17 14:35:56;;;;;;;0.00;0.00;;;9.30;99.90;;;;;;4959697;28;20050;-66
2021/12/17 14:38:40;;;;;;;0.00;0.00;;;8.80;99.90;;;;;;4960046;28;20055;-66
2021/12/17 14:41:11;;;;;;;0.00;0.00;;;8.80;99.90;;;;;;4960913;28;20047;-66
2021/12/17 14:43:56;;;;;;;0.00;0.00;;;9.00;99.90;;;;;;4961065;28;20051;-66
2021/12/17 14:46:25;;;;;;;0.00;0.00;;;8.80;99.90;;;;;;4960984;28;20506;-69
2021/12/17 14:57:15;;;;;;;0.00;0.00;;;8.80;99.90;;;;;;4960514;28;20047;-71
2021/12/17 15:05:13;;;;;;;0.00;0.00;;;9.00;99.90;;;;;;4961634;28;20130;-66
2021/12/17 15:07:39;;;;;;;0.00;0.00;;;9.90;99.90;;;;;;4959831;28;20050;-69
2021/12/17 15:10:08;;;;;;;0.00;0.00;;;9.00;99.90;;;;;;4960736;28;20062;-70
2021/12/17 15:15:02;;;;;;;0.00;0.00;;;9.00;99.90;;;;;;4961921;28;20059;-69
2021/12/17 15:17:28;;;;;;;0.00;0.00;;;8.70;99.90;;;;;;4962116;28;20086;-70
2021/12/17 15:19:53;;;;;;;0.00;0.00;;;8.70;99.90;;;;;;4959740;28;20090;-69
2021/12/17 15:22:19;;;;;;;0.00;0.00;;;8.80;99.90;;;;;;4959139;28;20433;-73
2021/12/17 15:24:45;;;;;;;0.00;0.00;;;8.70;99.90;;;;;;4961645;28;20039;-72
2021/12/17 15:27:13;;;;;;;0.00;0.00;;;8.70;99.90;;;;;;4961184;28;20137;-72
2021/12/17 15:29:39;;;;;;;0.00;0.00;;;8.70;99.90;;;;;;4971589;28;20038;-69
2021/12/17 15:32:05;;;;;;;0.00;0.00;;;8.70;99.90;;;;;;4959194;28;20090;-69
2021/12/17 15:34:31;;;;;;;0.00;0.00;;;8.70;99.90;;;;;;4962006;28;20406;-69
2021/12/17 15:36:57;;;;;;;0.00;0.00;;;8.70;99.90;;;;;;4961258;28;20050;-73
2021/12/17 15:39:23;;;;;;;0.00;0.00;;;8.70;99.90;;;;;;4974458;28;20050;-67
2021/12/17 15:41:49;;;;;;;0.00;0.00;;;9.10;99.90;;;;;;4960437;28;20109;-66
2021/12/17 15:44:15;;;;;;;0.00;0.00;;;8.70;99.90;;;;;;4959277;28;20047;-66
2021/12/17 15:46:40;;;;;;;0.00;0.00;;;8.70;99.90;;;;;;4963997;28;20055;-66
2021/12/17 15:49:06;;;;;;;0.00;0.00;;;9.00;99.90;;;;;;4960478;28;20085;-66
2021/12/17 15:51:34;;;;;;;0.00;0.00;;;8.60;99.90;;;;;;4944258;28;20057;-66
2021/12/17 15:54:00;;;;;;;0.00;0.00;;;8.60;99.90;;;;;;4959049;28;20050;-65
2021/12/17 15:56:26;;;;;;;0.00;0.00;;;8.50;99.90;;;;;;4958357;28;20493;-65
2021/12/17 15:58:51;;;;;;;0.00;0.00;;;8.60;99.90;;;;;;4960769;28;20086;-66
2021/12/17 16:01:17;;;;;;;0.00;0.00;;;8.50;99.90;;;;;;4960440;28;20057;-66
2021/12/17 16:03:43;;;;;;;0.00;0.00;;;8.50;99.90;;;;;;4960740;28;20042;-66
2021/12/17 16:06:10;;;;;;;0.00;0.00;;;8.50;99.90;;;;;;4957937;28;20584;-66
2021/12/17 16:08:44;;;;;;;0.00;0.00;;;8.50;99.90;;;;;;4958303;28;20086;-67
2021/12/17 16:22:02;;;;;;;0.00;0.00;;;8.50;99.90;;;;;;4958801;28;20134;-67
2021/12/17 16:24:28;;;;;;;0.00;0.00;;;8.50;99.90;;;;;;4959158;28;21104;-66
2021/12/17 16:26:56;;;;;;;0.00;0.00;;;8.40;99.90;;;;;;4962965;28;20043;-66
2021/12/17 16:29:22;;;;;;;0.00;0.00;;;8.40;99.90;;;;;;4965451;28;20054;-67
2021/12/17 16:31:49;;;;;;;0.00;0.00;;;8.10;99.90;;;;;;4966738;28;20046;-67
2021/12/17 16:34:16;;;;;;;0.00;0.00;;;8.80;99.90;;;;;;4964088;28;20057;-67
2021/12/17 16:36:43;;;;;;;0.00;0.00;;;8.30;99.90;;;;;;4966035;28;20072;-69